Minto, Canada
Current Conditions -  °F | °C
As of 8:00 AM on Friday 24 Oct 2014 (Local Time) from CYBR Reporting Station
Scattered Clouds Scattered Clouds  
Wind Chill: 34°   Ceiling: Unl
Heat Index: 39°   Visibility: 15mi
Dew Point: 36°   Wind: 7mph
Humidity: 87%   Direction: 270°W
Pressure: 29.68"   Gusts: NA
Location:  49.4°N, 100.02°W
Report Text: CYBR 241300Z 27006KT 15SM FEW140 FEW180 SCT240 04/02 A2968 RMK AC1AC1CI1 SLP064
Loading
Personal Weather Stations






























Interactive Weather Map
Tropical Storm Tracking
New forecast layout! Learn more

10-Day Weather Forecast

Advertisements
Track Severe Weather on mobile